Terminal Aerodrome Forecast
Issued by NWS

Home | Current Version | Previous Version | Text Only | Print | Product List | Glossary On
Versions: 1 2 3 4 5 6 7 8 9 10 11 12 13 14 15 16 17 18 19 20
811
FTUS41 KCAR 220541
TAFPQI
TAF
KPQI 220541Z 2206/2306 00000KT 3SM BR SKC
     FM220800 00000KT 2SM BR SCT002
     FM221200 00000KT P6SM SCT250=

USA.gov is the U.S. government's official web portal to all federal, state and local government web resources and services.